Time;durP1;ratioP1;P1;durP2;ratioP2;P2;SDS_P1;SDS_P2;PMS_P1;PMS_P2;Temp;Humidity;BMP_temperature;BMP_pressure;BME280_temperature;BME280_humidity;BME280_pressure;Samples;Min_cycle;Max_cycle;Signal;HPM_P1;HPM_P2
2023/03/15 00:01:37;;;;;;;7.03;1.95;;;;;;;1.98;67.57;100873.25;7392852;19;20006;-63
2023/03/15 00:04:04;;;;;;;10.40;2.50;;;;;;;2.09;67.13;100878.88;7393136;19;19995;-62
2023/03/15 00:06:33;;;;;;;14.68;2.25;;;;;;;2.07;66.87;100871.06;7393481;19;20018;-62
2023/03/15 00:09:00;;;;;;;14.38;2.60;;;;;;;2.00;66.98;100885.34;7391765;19;20030;-63
2023/03/15 00:11:29;;;;;;;12.43;2.80;;;;;;;1.97;67.47;100897.75;7391114;19;20006;-63
2023/03/15 00:13:56;;;;;;;12.63;2.70;;;;;;;2.02;67.47;100903.66;7388124;19;20006;-63
2023/03/15 00:16:26;;;;;;;14.38;3.00;;;;;;;1.80;67.51;100903.72;7389861;19;19999;-63
2023/03/15 00:18:55;;;;;;;14.48;2.85;;;;;;;1.72;68.44;100892.72;7391915;19;20073;-63
2023/03/15 00:21:21;;;;;;;15.05;3.17;;;;;;;1.78;67.92;100890.72;7390769;19;20328;-63
2023/03/15 00:23:47;;;;;;;11.85;3.17;;;;;;;1.80;68.23;100894.09;7390495;19;20006;-62
2023/03/15 00:26:13;;;;;;;10.98;3.00;;;;;;;1.94;67.66;100887.41;7389980;19;19995;-63
2023/03/15 00:28:39;;;;;;;9.95;2.25;;;;;;;1.87;67.68;100886.84;7392400;19;19998;-63
2023/03/15 00:31:15;;;;;;;10.73;2.50;;;;;;;1.87;67.62;100885.06;7392045;19;19991;-62
2023/03/15 00:33:41;;;;;;;10.23;2.22;;;;;;;1.82;67.81;100883.56;7392871;19;19999;-62
2023/03/15 00:36:08;;;;;;;13.80;2.40;;;;;;;1.82;67.70;100884.41;7391518;19;20001;-61
2023/03/15 00:38:36;;;;;;;10.95;2.70;;;;;;;1.91;67.25;100883.16;7390885;19;20010;-62
2023/03/15 00:41:07;;;;;;;11.52;2.47;;;;;;;1.98;66.85;100884.59;7391762;19;19999;-61
2023/03/15 00:43:32;;;;;;;14.70;2.80;;;;;;;2.02;66.79;100891.41;7392677;19;19999;-62
2023/03/15 00:45:58;;;;;;;11.98;2.08;;;;;;;2.03;66.64;100897.47;7391605;19;20316;-62
2023/03/15 00:48:23;;;;;;;12.93;2.00;;;;;;;2.01;66.94;100900.19;7389402;19;20013;-61
2023/03/15 00:50:49;;;;;;;11.35;1.92;;;;;;;1.91;66.85;100904.13;7392139;19;20006;-61
2023/03/15 00:53:14;;;;;;;12.75;2.00;;;;;;;1.96;66.95;100902.13;7391522;19;19995;-63
2023/03/15 00:55:41;;;;;;;10.63;2.40;;;;;;;1.96;67.04;100906.53;7391111;19;20010;-62
2023/03/15 00:58:07;;;;;;;9.57;2.03;;;;;;;1.95;67.18;100912.69;7390525;19;19991;-63
2023/03/15 01:00:32;;;;;;;18.60;2.78;;;;;;;1.99;66.96;100917.72;7392176;19;19995;-62
2023/03/15 01:02:58;;;;;;;9.02;2.03;;;;;;;1.97;67.04;100919.56;7390912;19;20014;-63
2023/03/15 01:05:25;;;;;;;18.08;2.45;;;;;;;2.00;67.19;100924.66;7390597;19;20009;-62
2023/03/15 01:07:51;;;;;;;9.65;2.05;;;;;;;2.01;67.28;100913.28;7388741;19;20005;-62
2023/03/15 01:10:25;;;;;;;12.38;2.45;;;;;;;2.05;67.43;100914.84;7389587;19;19999;-62
2023/03/15 01:12:50;;;;;;;;;;;;;;;1.99;67.35;100922.97;7392613;19;20040;-62
2023/03/15 01:15:16;;;;;;;11.43;2.15;;;;;;;2.08;66.97;100930.44;7390442;19;20290;-62
2023/03/15 01:17:42;;;;;;;10.73;1.75;;;;;;;2.05;67.13;100938.44;7391376;19;20009;-63
2023/03/15 01:20:09;;;;;;;15.30;2.45;;;;;;;2.06;67.32;100928.78;7389986;19;20002;-63
2023/03/15 01:22:34;;;;;;;17.17;2.35;;;;;;;2.11;67.31;100951.25;7391215;19;20026;-63
2023/03/15 01:24:59;;;;;;;9.55;1.80;;;;;;;2.16;67.46;100945.84;7389959;19;20021;-62
2023/03/15 01:27:25;;;;;;;14.55;2.17;;;;;;;2.29;67.32;100946.97;7391227;19;19991;-62
2023/03/15 01:29:51;;;;;;;16.92;2.45;;;;;;;2.28;67.46;100944.44;7390234;19;19998;-62
2023/03/15 01:32:16;;;;;;;15.02;2.33;;;;;;;2.23;67.44;100949.00;7391049;19;20556;-62
2023/03/15 01:34:42;;;;;;;13.65;2.05;;;;;;;2.26;67.77;100954.97;7388647;19;20003;-62
2023/03/15 01:37:09;;;;;;;10.77;1.80;;;;;;;2.41;67.43;100953.44;7390344;19;20487;-62
2023/03/15 01:39:34;;;;;;;11.35;1.83;;;;;;;2.35;67.42;100951.06;7388286;19;20091;-63
2023/03/15 01:42:01;;;;;;;8.77;1.92;;;;;;;2.35;67.23;100961.56;7388573;19;20010;-62
2023/03/15 01:44:50;;;;;;;12.02;1.98;;;;;;;2.36;66.94;100958.91;7389213;19;19998;-63
2023/03/15 01:47:16;;;;;;;9.63;1.98;;;;;;;2.37;67.38;100967.59;7393726;19;20003;-61
2023/03/15 01:49:44;;;;;;;16.48;2.55;;;;;;;2.33;67.20;100963.41;7388386;19;20003;-64
2023/03/15 01:52:20;;;;;;;16.58;2.03;;;;;;;2.49;67.12;100968.81;7390415;19;20020;-64
2023/03/15 01:55:04;;;;;;;12.52;2.25;;;;;;;2.40;67.15;100970.09;7389897;19;20013;-63
2023/03/15 01:57:46;;;;;;;10.93;1.90;;;;;;;2.39;67.46;100976.25;7387827;19;20009;-62
2023/03/15 02:00:13;;;;;;;12.73;2.53;;;;;;;2.39;67.67;100984.97;7388978;19;20006;-64
2023/03/15 02:02:48;;;;;;;13.98;1.92;;;;;;;2.30;68.32;100984.50;7390361;19;20031;-62
2023/03/15 02:05:19;;;;;;;17.27;2.58;;;;;;;2.47;68.13;100981.16;7389810;19;20010;-62
2023/03/15 02:07:48;;;;;;;15.23;2.50;;;;;;;2.47;68.01;100991.66;7389160;19;19995;-62
2023/03/15 02:10:32;;;;;;;13.55;1.92;;;;;;;2.50;68.08;100996.75;7390272;19;20009;-63
2023/03/15 02:12:58;;;;;;;10.32;2.22;;;;;;;2.53;67.78;100999.22;7389447;19;20017;-63
2023/03/15 02:15:24;;;;;;;8.88;1.98;;;;;;;2.43;68.18;101001.44;7389936;19;20816;-63
2023/03/15 02:17:50;;;;;;;9.88;2.05;;;;;;;2.43;68.52;101001.44;7388344;19;20478;-62
2023/03/15 02:20:49;;;;;;;10.07;1.95;;;;;;;2.36;69.04;101010.47;7389406;19;20013;-62
2023/03/15 02:23:19;;;;;;;9.90;2.03;;;;;;;2.33;68.98;101008.84;7389181;19;20010;-63
2023/03/15 02:26:24;;;;;;;8.13;2.00;;;;;;;2.35;69.70;101014.88;7388953;19;20002;-63
2023/03/15 02:28:52;;;;;;;12.15;3.00;;;;;;;2.36;69.35;101011.31;7385184;19;20003;-63
2023/03/15 02:31:18;;;;;;;11.40;2.00;;;;;;;2.30;70.03;101013.34;7389285;19;20022;-63
2023/03/15 02:33:47;;;;;;;8.25;2.13;;;;;;;2.32;70.41;101016.78;7387053;19;20010;-64
2023/03/15 02:36:20;;;;;;;6.40;1.83;;;;;;;2.32;70.80;101020.25;7388647;19;20015;-65
2023/03/15 02:38:47;;;;;;;11.85;2.65;;;;;;;2.34;70.54;101013.16;7386939;19;20002;-62
2023/03/15 02:41:17;;;;;;;13.98;2.40;;;;;;;2.32;70.39;101014.16;7388345;19;20005;-63
2023/03/15 02:43:44;;;;;;;18.67;2.70;;;;;;;2.32;70.79;101015.00;7388477;19;19995;-63
2023/03/15 02:46:09;;;;;;;13.18;2.47;;;;;;;2.12;71.22;101013.25;7388722;19;20010;-62
2023/03/15 02:48:37;;;;;;;11.63;2.60;;;;;;;2.09;71.87;101018.63;7394022;19;19999;-61
2023/03/15 02:51:03;;;;;;;10.40;2.20;;;;;;;2.09;71.65;101023.84;7395480;19;20020;-61
2023/03/15 02:53:32;;;;;;;11.18;2.65;;;;;;;2.00;72.23;101018.13;7396362;19;20348;-62
2023/03/15 02:55:58;;;;;;;13.52;2.60;;;;;;;1.96;72.37;101030.50;7395363;19;20076;-62
2023/03/15 02:58:24;;;;;;;15.93;2.60;;;;;;;1.96;72.45;101040.13;7394252;19;20454;-62
2023/03/15 03:00:51;;;;;;;13.15;3.10;;;;;;;1.90;72.73;101043.88;7394406;19;20066;-62
2023/03/15 03:03:17;;;;;;;15.20;2.80;;;;;;;1.94;72.43;101032.34;7393775;19;20006;-62
2023/03/15 03:05:42;;;;;;;11.20;3.08;;;;;;;1.89;72.94;101042.16;7394415;19;20042;-62
2023/03/15 03:08:08;;;;;;;11.02;2.55;;;;;;;2.00;72.59;101052.19;7394104;19;20331;-62
2023/03/15 03:10:33;;;;;;;12.00;2.33;;;;;;;1.94;72.78;101050.69;7395302;19;20023;-62
2023/03/15 03:13:02;;;;;;;9.90;2.58;;;;;;;1.96;72.98;101061.94;7394818;19;20015;-62
2023/03/15 03:15:27;;;;;;;8.48;1.90;;;;;;;1.98;73.05;101073.22;7394422;19;19999;-61
2023/03/15 03:17:53;;;;;;;9.13;2.53;;;;;;;2.02;73.05;101072.19;7393263;19;20341;-61
2023/03/15 03:20:18;;;;;;;13.32;2.17;;;;;;;2.09;72.64;101084.13;7394452;19;20027;-62
2023/03/15 03:22:44;;;;;;;9.50;2.20;;;;;;;2.12;72.68;101078.75;7394580;19;20014;-62
2023/03/15 03:25:11;;;;;;;9.13;1.98;;;;;;;2.08;72.96;101092.91;7394069;19;20007;-64
2023/03/15 03:27:37;;;;;;;11.27;2.33;;;;;;;2.01;72.92;101098.47;7395294;19;20022;-63
2023/03/15 03:30:08;;;;;;;10.27;2.78;;;;;;;2.09;72.67;101112.09;7395205;19;20030;-62
2023/03/15 03:32:34;;;;;;;11.70;2.50;;;;;;;2.09;73.06;101119.97;7393806;19;20038;-62
2023/03/15 03:34:59;;;;;;;9.05;2.45;;;;;;;2.10;73.05;101129.53;7393508;19;20312;-62
2023/03/15 03:37:26;;;;;;;8.68;2.53;;;;;;;2.11;73.24;101129.44;7392034;19;20023;-62
2023/03/15 03:39:51;;;;;;;10.48;2.60;;;;;;;2.08;73.44;101121.72;7394305;19;20467;-62
2023/03/15 03:42:16;;;;;;;14.48;3.10;;;;;;;2.05;73.43;101124.47;7394703;19;20015;-61
2023/03/15 03:44:42;;;;;;;11.48;3.13;;;;;;;2.06;73.23;101134.03;7394223;19;20470;-62
2023/03/15 03:47:08;;;;;;;11.02;3.05;;;;;;;2.01;73.59;101141.25;7393744;19;20021;-62
2023/03/15 03:49:33;;;;;;;15.40;3.72;;;;;;;2.01;73.45;101136.00;7392447;19;20357;-62
2023/03/15 03:52:00;;;;;;;15.38;3.83;;;;;;;2.02;73.04;101134.22;7394914;19;19999;-62
2023/03/15 03:54:26;;;;;;;12.85;3.30;;;;;;;2.01;73.35;101136.00;7393214;19;19998;-62
2023/03/15 03:56:52;;;;;;;10.52;2.47;;;;;;;2.00;73.51;101143.91;7393451;19;20037;-62
2023/03/15 03:59:23;;;;;;;9.23;2.47;;;;;;;2.01;73.55;101148.25;7394259;19;19997;-62
2023/03/15 04:01:50;;;;;;;10.65;2.40;;;;;;;1.96;73.41;101156.28;7391153;19;20025;-62
2023/03/15 04:04:15;;;;;;;10.50;2.35;;;;;;;1.94;73.69;101154.66;7393556;19;20387;-62
2023/03/15 04:06:44;;;;;;;12.75;2.72;;;;;;;1.90;73.72;101149.53;7389154;19;20006;-62
2023/03/15 04:09:14;;;;;;;10.27;2.22;;;;;;;1.89;74.10;101157.41;7389953;19;20349;-62
2023/03/15 04:11:43;;;;;;;8.50;2.03;;;;;;;1.87;74.11;101174.97;7393650;19;20006;-62
2023/03/15 04:14:10;;;;;;;13.65;2.63;;;;;;;1.86;74.04;101166.28;7394497;19;19998;-62
2023/03/15 04:16:36;;;;;;;11.20;2.45;;;;;;;1.95;73.60;101180.78;7393157;19;20002;-62
2023/03/15 04:19:02;;;;;;;9.65;2.10;;;;;;;1.85;73.89;101192.50;7391352;19;19998;-62
2023/03/15 04:21:30;;;;;;;8.13;1.75;;;;;;;1.75;74.30;101199.88;7392113;19;20503;-62
2023/03/15 04:24:00;;;;;;;8.85;2.22;;;;;;;1.70;74.62;101198.34;7393578;19;20058;-62
2023/03/15 04:26:26;;;;;;;9.80;2.42;;;;;;;1.66;74.94;101206.34;7392172;19;20027;-62
2023/03/15 04:28:57;;;;;;;7.97;2.58;;;;;;;1.72;74.77;101207.84;7391400;19;20471;-61
2023/03/15 04:31:25;;;;;;;8.90;2.30;;;;;;;1.67;75.10;101215.03;7393640;19;19995;-61
2023/03/15 04:33:55;;;;;;;9.25;2.05;;;;;;;1.67;75.06;101215.88;7392245;19;19994;-62
2023/03/15 04:36:21;;;;;;;10.45;2.28;;;;;;;1.72;75.13;101217.47;7391355;19;20030;-62
2023/03/15 04:38:48;;;;;;;14.52;2.50;;;;;;;1.70;75.11;101216.66;7387923;19;20139;-62
2023/03/15 04:41:15;;;;;;;13.43;2.53;;;;;;;1.65;75.25;101224.72;7389618;19;20411;-62
2023/03/15 04:43:41;;;;;;;12.20;2.63;;;;;;;1.59;75.44;101225.81;7390298;19;20304;-62
2023/03/15 04:46:07;;;;;;;9.07;2.40;;;;;;;1.66;75.55;101223.78;7388271;19;20483;-62
2023/03/15 04:48:33;;;;;;;10.13;2.90;;;;;;;1.61;75.46;101229.19;7387834;19;20029;-61
2023/03/15 04:50:59;;;;;;;12.48;2.70;;;;;;;1.58;75.67;101236.31;7387610;19;20014;-62
2023/03/15 04:53:25;;;;;;;9.68;2.40;;;;;;;1.61;75.71;101236.22;7391953;19;20010;-62
2023/03/15 04:55:51;;;;;;;10.65;2.60;;;;;;;1.54;75.92;101242.56;7391555;19;20006;-61
2023/03/15 04:58:17;;;;;;;12.15;2.20;;;;;;;1.54;75.97;101251.28;7389043;19;19999;-61
2023/03/15 05:00:42;;;;;;;7.82;2.20;;;;;;;1.58;75.59;101257.25;7390712;19;20022;-61
2023/03/15 05:03:08;;;;;;;11.18;2.50;;;;;;;1.62;75.38;101262.31;7391800;19;19999;-61
2023/03/15 05:05:33;;;;;;;10.63;2.60;;;;;;;1.47;75.65;101255.03;7390557;19;19995;-61
2023/03/15 05:07:59;;;;;;;8.27;2.42;;;;;;;1.49;76.03;101263.69;7389410;19;20065;-62
2023/03/15 05:10:25;;;;;;;13.45;2.90;;;;;;;1.42;76.13;101256.97;7390401;19;20324;-62
2023/03/15 05:12:50;;;;;;;16.33;3.00;;;;;;;1.42;75.77;101262.19;7390947;19;19994;-62
2023/03/15 05:15:17;;;;;;;9.88;2.55;;;;;;;1.46;75.88;101260.34;7391003;19;19995;-62
2023/03/15 05:17:47;;;;;;;9.00;2.10;;;;;;;1.48;75.47;101255.91;7390647;19;20321;-61
2023/03/15 05:20:13;;;;;;;13.13;2.47;;;;;;;1.48;75.54;101259.38;7391495;19;20006;-62
2023/03/15 05:22:39;;;;;;;12.70;2.65;;;;;;;1.47;75.84;101268.13;7390585;19;20018;-65
2023/03/15 05:25:05;;;;;;;10.32;2.60;;;;;;;1.56;75.20;101272.19;7383294;19;20019;-63
2023/03/15 05:27:32;;;;;;;8.70;2.60;;;;;;;1.44;75.80;101278.72;7391299;19;20023;-60
2023/03/15 05:29:58;;;;;;;10.13;2.58;;;;;;;1.52;75.69;101288.94;7394790;19;20010;-59
2023/03/15 05:32:25;;;;;;;15.85;2.80;;;;;;;1.57;75.37;101286.97;7390802;19;20475;-59
2023/03/15 05:34:53;;;;;;;9.57;2.60;;;;;;;1.45;75.48;101295.28;7388295;19;20010;-60
2023/03/15 05:37:22;;;;;;;8.63;2.40;;;;;;;1.40;76.06;101295.44;7390491;19;20014;-59
2023/03/15 05:39:48;;;;;;;10.32;2.55;;;;;;;1.49;75.68;101302.97;7389011;19;20006;-59
2023/03/15 05:42:14;;;;;;;11.55;2.60;;;;;;;1.52;75.22;101310.72;7389302;19;20058;-60
2023/03/15 05:44:39;;;;;;;12.55;2.97;;;;;;;1.48;75.58;101314.34;7388159;19;20058;-60
2023/03/15 05:47:05;;;;;;;11.18;3.05;;;;;;;1.51;75.65;101321.22;7390682;19;20499;-60
2023/03/15 05:49:30;;;;;;;8.05;2.50;;;;;;;1.52;75.45;101322.97;7391034;19;20293;-61
2023/03/15 05:51:56;;;;;;;11.30;2.53;;;;;;;1.43;75.92;101334.59;7390035;19;19998;-60
2023/03/15 05:54:28;;;;;;;9.80;2.70;;;;;;;1.43;75.72;101337.19;7388725;19;19999;-61
2023/03/15 05:56:53;;;;;;;8.93;2.65;;;;;;;1.40;75.84;101340.81;7390236;19;20014;-61
2023/03/15 05:59:19;;;;;;;8.82;2.90;;;;;;;1.39;76.10;101353.94;7389857;19;20023;-61
2023/03/15 06:01:44;;;;;;;11.77;2.97;;;;;;;1.35;76.13;101347.09;7386868;19;20348;-60
2023/03/15 06:04:10;;;;;;;11.07;3.05;;;;;;;1.39;76.07;101348.69;7386836;19;20479;-62
2023/03/15 06:06:35;;;;;;;12.77;2.65;;;;;;;1.47;76.18;101343.19;7390486;19;20768;-60
2023/03/15 06:09:01;;;;;;;9.40;2.45;;;;;;;1.41;75.85;101355.59;7391095;19;19995;-60
2023/03/15 06:11:26;;;;;;;7.47;2.50;;;;;;;1.41;76.16;101357.34;7391801;19;19998;-60
2023/03/15 06:13:52;;;;;;;11.35;2.97;;;;;;;1.40;76.11;101364.38;7390738;19;19998;-62
2023/03/15 06:16:17;;;;;;;13.13;2.65;;;;;;;1.50;75.89;101364.03;7389053;19;20025;-61
2023/03/15 06:18:43;;;;;;;10.65;3.00;;;;;;;1.46;75.88;101367.66;7389903;19;20033;-62
2023/03/15 06:21:08;;;;;;;12.50;2.92;;;;;;;1.50;75.52;101379.75;7391494;19;20003;-61
2023/03/15 06:23:33;;;;;;;9.77;3.00;;;;;;;1.55;75.56;101375.19;7396050;19;20010;-62
2023/03/15 06:25:59;;;;;;;9.05;2.65;;;;;;;1.45;75.43;101377.28;7396185;19;20058;-61
2023/03/15 06:28:24;;;;;;;9.73;2.65;;;;;;;1.34;76.06;101382.03;7397284;19;20475;-61
2023/03/15 06:30:50;;;;;;;9.13;2.75;;;;;;;1.45;75.82;101386.91;7396770;19;19995;-61
2023/03/15 06:33:15;;;;;;;10.65;2.83;;;;;;;1.42;75.86;101391.31;7394675;19;19994;-60
2023/03/15 06:35:41;;;;;;;11.57;2.60;;;;;;;1.49;75.63;101391.97;7395982;19;19995;-61
2023/03/15 06:38:07;;;;;;;12.82;2.63;;;;;;;1.53;75.57;101393.59;7396231;19;19998;-60
2023/03/15 06:40:32;;;;;;;10.25;2.17;;;;;;;1.63;74.93;101400.22;7393793;19;20003;-63
2023/03/15 06:43:02;;;;;;;14.35;2.00;;;;;;;1.64;75.00;101396.69;7394396;19;20034;-63
2023/03/15 06:45:30;;;;;;;9.18;2.20;;;;;;;1.76;74.85;101400.66;7395990;19;20049;-62
2023/03/15 06:47:56;;;;;;;6.55;2.10;;;;;;;1.86;74.54;101403.81;7396210;19;20007;-63
2023/03/15 06:50:21;;;;;;;5.60;1.90;;;;;;;1.86;74.39;101409.06;7396108;19;20005;-63
2023/03/15 06:52:47;;;;;;;7.97;2.42;;;;;;;1.88;74.43;101410.69;7396594;19;19998;-63
2023/03/15 06:55:16;;;;;;;10.23;2.05;;;;;;;1.95;73.92;101420.97;7393352;19;19994;-62
2023/03/15 06:57:45;;;;;;;11.00;2.13;;;;;;;1.96;73.93;101423.50;7395860;19;20003;-62
2023/03/15 07:00:11;;;;;;;10.73;2.20;;;;;;;1.92;74.05;101435.03;7395282;19;20383;-62
2023/03/15 07:02:37;;;;;;;9.10;2.17;;;;;;;1.84;74.20;101435.28;7396247;19;19999;-62
2023/03/15 07:05:04;;;;;;;12.77;2.38;;;;;;;1.89;73.91;101440.34;7392038;19;19999;-62
2023/03/15 07:07:29;;;;;;;10.48;2.00;;;;;;;1.85;73.92;101455.34;7396178;19;20129;-63
2023/03/15 07:09:54;;;;;;;8.27;1.65;;;;;;;1.86;73.87;101456.22;7393656;19;19994;-63
2023/03/15 07:12:20;;;;;;;7.47;1.70;;;;;;;1.89;73.51;101469.19;7396358;19;20005;-62
2023/03/15 07:14:45;;;;;;;13.35;2.15;;;;;;;1.95;73.03;101465.50;7392729;19;20014;-62
2023/03/15 07:17:11;;;;;;;10.30;2.08;;;;;;;1.98;72.99;101468.03;7395311;19;19995;-63
2023/03/15 07:19:37;;;;;;;9.57;2.22;;;;;;;2.06;72.45;101472.09;7394911;19;19990;-62
2023/03/15 07:22:03;;;;;;;10.05;2.08;;;;;;;2.17;72.32;101483.97;7392907;19;20050;-62
2023/03/15 07:24:29;;;;;;;10.60;1.90;;;;;;;2.01;72.18;101479.25;7392210;19;20015;-62
2023/03/15 07:26:55;;;;;;;12.60;1.80;;;;;;;1.96;71.88;101490.78;7394907;19;20070;-63
2023/03/15 07:29:22;;;;;;;7.82;1.80;;;;;;;1.94;71.70;101492.63;7394893;19;20021;-62
2023/03/15 07:31:48;;;;;;;9.57;2.05;;;;;;;1.99;70.92;101496.78;7395193;19;20005;-64
2023/03/15 07:34:14;;;;;;;10.00;2.00;;;;;;;1.98;70.43;101508.19;7392552;19;20011;-62
2023/03/15 07:36:40;;;;;;;10.23;1.85;;;;;;;2.05;70.19;101500.97;7395015;19;19999;-62
2023/03/15 07:39:05;;;;;;;9.32;1.80;;;;;;;2.12;69.54;101505.94;7394722;19;20019;-62
2023/03/15 07:41:30;;;;;;;11.13;2.10;;;;;;;2.24;69.23;101509.91;7393487;19;20003;-62
2023/03/15 07:43:56;;;;;;;8.00;1.80;;;;;;;2.28;69.09;101513.28;7393816;19;20012;-63
2023/03/15 07:46:22;;;;;;;9.93;1.75;;;;;;;2.29;68.42;101520.22;7394023;19;20001;-62
2023/03/15 07:48:47;;;;;;;10.38;2.13;;;;;;;2.34;68.45;101515.66;7393830;19;20015;-63
2023/03/15 07:51:13;;;;;;;12.45;2.45;;;;;;;2.42;67.82;101511.00;7394272;19;20002;-62
2023/03/15 07:53:38;;;;;;;12.40;2.33;;;;;;;2.52;67.73;101503.66;7393991;19;19999;-61
2023/03/15 07:56:04;;;;;;;8.55;2.53;;;;;;;2.57;67.29;101512.22;7394046;19;20345;-62
2023/03/15 07:58:30;;;;;;;10.35;2.38;;;;;;;2.66;66.87;101511.91;7392720;19;19999;-62
2023/03/15 08:00:56;;;;;;;9.95;2.10;;;;;;;2.71;66.32;101515.19;7393585;19;19999;-62
2023/03/15 08:03:23;;;;;;;9.13;2.65;;;;;;;2.72;65.40;101522.16;7391155;19;20554;-63
2023/03/15 08:05:49;;;;;;;13.45;2.10;;;;;;;2.76;65.69;101522.88;7393317;19;19998;-63
2023/03/15 08:08:15;;;;;;;12.05;2.53;;;;;;;2.74;65.16;101525.59;7393532;19;20413;-64
2023/03/15 08:10:42;;;;;;;10.40;2.38;;;;;;;2.81;65.48;101518.34;7391635;19;20013;-63
2023/03/15 08:13:07;;;;;;;8.10;1.90;;;;;;;2.93;65.11;101525.75;7391601;19;20002;-62
2023/03/15 08:15:33;;;;;;;10.32;2.17;;;;;;;3.00;64.67;101527.22;7392341;19;20492;-62
2023/03/15 08:17:59;;;;;;;8.05;2.08;;;;;;;3.00;64.51;101528.97;7393319;19;20006;-62
2023/03/15 08:20:25;;;;;;;12.60;2.30;;;;;;;3.09;64.29;101526.88;7392651;19;20010;-63
2023/03/15 08:22:50;;;;;;;6.40;1.60;;;;;;;3.10;63.89;101538.22;7394113;19;20070;-61
2023/03/15 08:25:25;;;;;;;5.97;1.90;;;;;;;3.10;63.53;101527.72;7390257;19;20003;-62
2023/03/15 08:27:51;;;;;;;8.77;1.63;;;;;;;3.09;63.83;101537.38;7392712;19;20513;-63
2023/03/15 08:30:18;;;;;;;11.60;2.70;;;;;;;3.12;64.10;101541.66;7391493;19;20100;-63
2023/03/15 08:32:45;;;;;;;6.15;1.83;;;;;;;3.09;63.90;101547.03;7393271;19;20013;-63
2023/03/15 08:35:13;;;;;;;10.93;1.90;;;;;;;3.15;63.81;101546.75;7390548;19;20451;-61
2023/03/15 08:37:39;;;;;;;13.05;1.58;;;;;;;3.25;63.40;101556.00;7393089;19;20027;-63
2023/03/15 08:40:09;;;;;;;7.13;1.55;;;;;;;3.30;63.09;101566.31;7392175;19;19990;-63
2023/03/15 08:42:36;;;;;;;12.15;2.30;;;;;;;3.32;63.53;101575.00;7392446;19;19999;-62
2023/03/15 08:45:03;;;;;;;11.75;2.10;;;;;;;3.37;63.50;101571.28;7387208;19;20007;-63
2023/03/15 08:47:29;;;;;;;9.32;1.80;;;;;;;3.45;63.12;101570.13;7393217;19;20048;-63
2023/03/15 08:49:54;;;;;;;10.10;2.17;;;;;;;3.55;63.09;101579.38;7392929;19;19997;-64
2023/03/15 08:52:20;;;;;;;9.10;2.50;;;;;;;3.52;62.98;101582.13;7393237;19;19995;-63
2023/03/15 08:54:46;;;;;;;15.98;2.83;;;;;;;3.61;62.20;101587.88;7388068;19;20474;-64
2023/03/15 08:57:12;;;;;;;11.77;2.78;;;;;;;3.69;61.37;101594.59;7391880;19;20488;-62
2023/03/15 08:59:38;;;;;;;11.93;2.53;;;;;;;3.70;61.06;101591.06;7392517;19;20006;-63
2023/03/15 09:02:04;;;;;;;11.25;2.28;;;;;;;3.77;60.92;101582.84;7388699;19;20041;-64
2023/03/15 09:04:31;;;;;;;9.50;1.90;;;;;;;3.79;60.23;101588.88;7390658;19;20002;-62
2023/03/15 09:06:56;;;;;;;10.40;2.63;;;;;;;3.81;60.23;101594.97;7389762;19;20497;-63
2023/03/15 09:09:22;;;;;;;10.75;2.40;;;;;;;3.90;60.61;101601.59;7392464;19;20002;-62
2023/03/15 09:11:48;;;;;;;13.00;2.40;;;;;;;3.93;60.03;101598.03;7392248;19;19990;-63
2023/03/15 09:14:13;;;;;;;11.88;2.20;;;;;;;4.01;60.41;101612.56;7391194;19;20017;-63
2023/03/15 09:16:39;;;;;;;9.88;1.83;;;;;;;4.02;60.19;101603.75;7391419;19;19994;-63
2023/03/15 09:19:04;;;;;;;14.18;3.08;;;;;;;4.06;60.39;101612.38;7392196;19;20010;-63
2023/03/15 09:21:30;;;;;;;10.48;1.80;;;;;;;4.08;59.96;101618.44;7390844;19;19991;-64
2023/03/15 09:23:56;;;;;;;11.20;1.70;;;;;;;4.07;60.10;101616.75;7390921;19;20311;-62
2023/03/15 09:26:22;;;;;;;8.98;2.25;;;;;;;4.09;59.87;101621.00;7391186;19;20003;-63
2023/03/15 09:28:47;;;;;;;10.32;1.95;;;;;;;4.09;59.12;101626.25;7391968;19;20003;-63
2023/03/15 09:31:13;;;;;;;12.55;2.13;;;;;;;4.20;58.43;101623.19;7389435;19;20390;-62
2023/03/15 09:33:38;;;;;;;10.55;2.00;;;;;;;4.33;58.21;101619.16;7390245;19;20013;-63
2023/03/15 09:36:04;;;;;;;13.25;2.38;;;;;;;4.34;57.61;101626.09;7390780;19;19999;-63
2023/03/15 09:38:30;;;;;;;11.15;2.08;;;;;;;4.44;57.16;101625.72;7391587;19;20006;-64
2023/03/15 09:40:59;;;;;;;13.18;2.70;;;;;;;4.45;56.97;101632.66;7390133;19;20027;-63
2023/03/15 09:43:33;;;;;;;11.60;1.92;;;;;;;4.67;56.38;101622.94;7390329;19;20014;-64
2023/03/15 09:46:20;;;;;;;12.40;2.35;;;;;;;4.81;55.12;101631.09;7389765;19;20003;-63
2023/03/15 09:49:08;;;;;;;11.13;1.80;;;;;;;4.83;54.77;101634.53;7391171;19;20034;-64
2023/03/15 09:51:58;;;;;;;11.52;1.83;;;;;;;4.87;53.45;101643.16;7390051;19;20006;-64
2023/03/15 09:54:51;;;;;;;13.65;2.00;;;;;;;5.07;52.84;101632.59;7389183;19;20005;-63
2023/03/15 09:57:35;;;;;;;12.63;2.58;;;;;;;4.86;52.77;101644.06;7397197;19;20003;-63
2023/03/15 10:00:05;;;;;;;14.20;2.53;;;;;;;5.00;52.80;101646.09;7398439;19;20103;-64
2023/03/15 10:02:31;;;;;;;9.52;1.77;;;;;;;5.10;52.90;101650.03;7396650;19;20035;-64
2023/03/15 10:05:12;;;;;;;14.27;2.25;;;;;;;5.13;51.17;101652.50;7394972;19;20003;-64
2023/03/15 10:07:38;;;;;;;11.30;2.13;;;;;;;5.47;51.44;101646.56;7398100;19;20030;-64
2023/03/15 10:10:14;;;;;;;10.35;1.83;;;;;;;5.73;49.73;101641.84;7397251;19;19995;-63
2023/03/15 10:12:45;;;;;;;14.68;1.88;;;;;;;5.85;49.58;101650.97;7398292;19;19999;-63
2023/03/15 10:15:18;;;;;;;12.55;2.10;;;;;;;5.64;51.45;101663.38;7397083;19;19999;-63
2023/03/15 10:17:50;;;;;;;4.35;1.10;;;;;;;5.01;55.60;101696.03;7398363;19;20009;-66
2023/03/15 10:20:23;;;;;;;4.63;0.75;;;;;;;3.87;61.28;101707.72;7397096;19;20002;-65
2023/03/15 10:22:59;;;;;;;5.00;0.98;;;;;;;3.51;65.09;101717.88;7397685;19;19999;-64
2023/03/15 10:25:29;;;;;;;5.35;1.08;;;;;;;2.91;68.76;101749.78;7394680;19;20039;-64
2023/03/15 10:28:00;;;;;;;3.25;0.70;;;;;;;2.46;70.35;101753.00;7396971;19;19995;-64
2023/03/15 10:30:28;;;;;;;4.68;0.80;;;;;;;2.22;71.13;101762.50;7397507;19;20040;-63
2023/03/15 10:33:14;;;;;;;3.70;0.80;;;;;;;2.13;72.08;101767.13;7395225;19;19999;-65
2023/03/15 10:35:41;;;;;;;3.78;0.80;;;;;;;2.06;71.35;101770.84;7396255;19;19999;-67
2023/03/15 10:38:19;;;;;;;6.07;1.00;;;;;;;2.06;71.90;101765.59;7397431;19;20103;-66
2023/03/15 10:40:47;;;;;;;8.60;2.22;;;;;;;2.10;71.40;101754.13;7394325;19;20070;-66
2023/03/15 10:43:19;;;;;;;8.63;2.28;;;;;;;2.16;71.50;101753.09;7395448;19;20007;-63
2023/03/15 10:46:01;;;;;;;7.35;2.10;;;;;;;2.23;72.05;101761.59;7396097;19;20006;-63
2023/03/15 10:48:30;;;;;;;7.03;2.20;;;;;;;2.26;70.59;101749.25;7397238;19;20477;-63
2023/03/15 10:50:56;;;;;;;7.47;1.88;;;;;;;2.32;70.60;101743.84;7395937;19;19998;-63
2023/03/15 10:53:24;;;;;;;4.05;1.40;;;;;;;2.50;69.15;101744.13;7395368;19;19995;-62
2023/03/15 10:55:59;;;;;;;5.43;1.80;;;;;;;2.67;68.34;101751.47;7393313;19;19995;-62
2023/03/15 10:58:38;;;;;;;7.15;1.65;;;;;;;2.68;67.98;101747.94;7396981;19;20009;-62
2023/03/15 11:01:06;;;;;;;9.18;2.17;;;;;;;2.66;68.79;101752.38;7392961;19;20018;-62
2023/03/15 11:03:33;;;;;;;7.95;1.70;;;;;;;2.67;68.79;101754.94;7395284;19;20019;-64
2023/03/15 11:05:59;;;;;;;5.35;1.10;;;;;;;2.72;68.82;101758.25;7394820;19;20062;-62
2023/03/15 11:08:40;;;;;;;7.50;1.42;;;;;;;2.88;68.92;101753.34;7393249;19;20009;-62
2023/03/15 11:11:07;;;;;;;7.63;1.35;;;;;;;3.01;68.21;101753.81;7395429;19;20007;-62
2023/03/15 11:13:34;;;;;;;5.97;1.30;;;;;;;3.24;67.05;101763.50;7394513;19;20475;-62
2023/03/15 11:16:19;;;;;;;5.18;1.17;;;;;;;3.31;65.89;101793.91;7395425;19;20001;-63
2023/03/15 11:18:52;;;;;;;7.00;0.80;;;;;;;3.02;66.24;101808.88;7396112;19;20083;-62
2023/03/15 11:21:21;;;;;;;5.28;1.38;;;;;;;2.84;67.40;101812.09;7393582;19;20320;-62
2023/03/15 11:23:48;;;;;;;4.88;1.10;;;;;;;2.88;67.67;101824.22;7390364;19;20037;-59
2023/03/15 11:26:20;;;;;;;7.93;1.40;;;;;;;3.38;66.01;101834.81;7393269;19;20522;-60
2023/03/15 11:28:52;;;;;;;4.13;1.38;;;;;;;3.91;64.52;101852.19;7395221;19;20034;-59
2023/03/15 11:31:25;;;;;;;4.68;1.60;;;;;;;4.20;64.06;101838.84;7394873;19;20003;-59
2023/03/15 11:34:27;;;;;;;5.30;1.70;;;;;;;4.48;62.59;101846.53;7395136;19;20019;-59